Time;durP1;ratioP1;P1;durP2;ratioP2;P2;SDS_P1;SDS_P2;PMS_P1;PMS_P2;Temp;Humidity;BMP_temperature;BMP_pressure;BME280_temperature;BME280_humidity;BME280_pressure;Samples;Min_cycle;Max_cycle;Signal;HPM_P1;HPM_P2
2020/12/12 00:02:07;;;;;;;51.60;19.57;;;2.70;99.90;;;;;;4990325;28;20275;-44
2020/12/12 00:04:32;;;;;;;47.67;18.83;;;2.70;99.90;;;;;;5007976;28;20204;-39
2020/12/12 00:07:01;;;;;;;39.90;18.77;;;2.70;99.90;;;;;;5014593;28;20257;-43
2020/12/12 00:09:26;;;;;;;45.60;20.47;;;2.70;99.90;;;;;;5026194;28;20198;-40
2020/12/12 00:11:51;;;;;;;42.70;18.70;;;2.70;99.90;;;;;;5022621;28;20183;-43
2020/12/12 00:14:17;;;;;;;47.67;20.57;;;2.70;99.90;;;;;;5026246;28;20227;-42
2020/12/12 00:16:42;;;;;;;42.03;18.63;;;2.70;99.90;;;;;;5006487;28;20383;-39
2020/12/12 00:19:09;;;;;;;44.53;18.23;;;2.80;99.90;;;;;;4993200;28;20217;-44
2020/12/12 00:21:35;;;;;;;50.03;19.17;;;2.70;99.90;;;;;;5008157;28;20219;-38
2020/12/12 00:24:00;;;;;;;43.13;18.83;;;2.70;99.90;;;;;;4998752;28;20227;-41
2020/12/12 00:26:26;;;;;;;48.03;19.27;;;2.70;99.90;;;;;;5007232;28;20199;-37
2020/12/12 00:28:52;;;;;;;41.73;18.83;;;2.70;99.90;;;;;;5000241;28;20194;-42
2020/12/12 00:31:18;;;;;;;42.37;19.63;;;2.70;99.90;;;;;;5006302;28;20196;-41
2020/12/12 00:33:44;;;;;;;46.83;18.73;;;2.70;99.90;;;;;;4989365;28;20218;-40
2020/12/12 00:36:10;;;;;;;48.43;20.10;;;2.70;99.90;;;;;;5005058;28;20193;-47
2020/12/12 00:38:35;;;;;;;52.37;20.13;;;2.70;99.90;;;;;;5023966;28;20261;-39
2020/12/12 00:41:01;;;;;;;47.83;18.80;;;2.70;99.90;;;;;;5018890;28;20790;-40
2020/12/12 00:43:26;;;;;;;44.80;20.03;;;2.80;99.90;;;;;;5006832;28;20200;-37
2020/12/12 00:45:52;;;;;;;46.00;19.67;;;2.70;99.90;;;;;;5003519;28;20184;-43
2020/12/12 00:48:17;;;;;;;51.20;20.53;;;2.70;99.90;;;;;;4989888;28;20188;-43
2020/12/12 00:50:49;;;;;;;45.53;19.83;;;2.80;99.90;;;;;;4996696;28;20580;-37
2020/12/12 00:53:15;;;;;;;44.93;18.23;;;2.70;99.90;;;;;;5005947;28;20266;-43
2020/12/12 00:55:41;;;;;;;44.17;18.77;;;2.70;99.90;;;;;;5014433;28;20180;-38
2020/12/12 00:58:07;;;;;;;43.47;18.50;;;2.70;99.90;;;;;;5017735;28;20177;-48
2020/12/12 01:00:33;;;;;;;43.07;19.17;;;2.70;99.90;;;;;;5003137;28;20199;-40
2020/12/12 01:03:05;;;;;;;46.30;19.70;;;2.70;99.90;;;;;;4999218;28;20201;-45
2020/12/12 01:05:33;;;;;;;53.60;20.80;;;2.70;99.90;;;;;;5007846;28;20187;-41
2020/12/12 01:07:59;;;;;;;52.30;19.77;;;2.60;99.90;;;;;;5005578;28;20441;-43
2020/12/12 01:10:26;;;;;;;46.87;21.40;;;2.60;99.90;;;;;;5006401;28;20703;-42
2020/12/12 01:12:51;;;;;;;41.63;19.80;;;2.60;99.90;;;;;;5002066;28;20346;-47
2020/12/12 01:15:18;;;;;;;45.57;18.50;;;2.60;99.90;;;;;;5006393;28;20294;-42
2020/12/12 01:17:44;;;;;;;45.10;19.37;;;2.60;99.90;;;;;;4999397;28;20548;-38
2020/12/12 01:20:09;;;;;;;48.20;18.97;;;2.60;99.90;;;;;;5007163;28;20184;-48
2020/12/12 01:22:35;;;;;;;48.93;20.83;;;2.60;99.90;;;;;;5006147;28;20317;-38
2020/12/12 01:25:01;;;;;;;49.07;20.10;;;2.60;99.90;;;;;;5023085;28;20807;-44
2020/12/12 01:27:26;;;;;;;48.73;21.67;;;2.60;99.90;;;;;;5021538;28;20188;-38
2020/12/12 01:29:52;;;;;;;42.50;19.27;;;2.60;99.90;;;;;;5001443;28;20302;-43
2020/12/12 01:32:17;;;;;;;46.53;20.07;;;2.60;99.90;;;;;;5007819;28;20198;-44
2020/12/12 01:34:43;;;;;;;46.83;20.93;;;2.60;99.90;;;;;;4990895;28;20744;-40
2020/12/12 01:37:08;;;;;;;43.87;19.67;;;2.60;99.90;;;;;;5000133;28;20165;-40
2020/12/12 01:39:34;;;;;;;46.07;19.10;;;2.60;99.90;;;;;;5014968;28;20180;-38
2020/12/12 01:41:59;;;;;;;41.37;20.37;;;2.60;99.90;;;;;;5002378;28;20258;-42
2020/12/12 01:44:25;;;;;;;44.70;19.10;;;2.60;99.90;;;;;;5005640;28;20207;-48
2020/12/12 01:46:51;;;;;;;48.93;19.40;;;2.60;99.90;;;;;;5001583;28;20246;-42
2020/12/12 01:49:16;;;;;;;43.60;20.13;;;2.60;99.90;;;;;;5005582;28;20195;-42
2020/12/12 01:51:43;;;;;;;47.60;19.33;;;2.60;99.90;;;;;;4990211;28;20202;-39
2020/12/12 01:54:09;;;;;;;40.60;19.70;;;2.60;99.90;;;;;;5002650;28;20215;-41
2020/12/12 01:56:35;;;;;;;42.07;19.27;;;2.60;99.90;;;;;;5022294;28;20197;-38
2020/12/12 01:59:01;;;;;;;41.97;19.67;;;2.60;99.90;;;;;;5007475;28;20249;-43
2020/12/12 02:01:27;;;;;;;41.00;19.30;;;2.60;99.90;;;;;;5017269;28;20192;-40
2020/12/12 02:03:55;;;;;;;38.87;19.50;;;2.60;99.90;;;;;;4996082;28;20294;-43
2020/12/12 02:06:21;;;;;;;44.37;19.63;;;2.60;99.90;;;;;;4977470;28;20708;-39
2020/12/12 02:08:51;;;;;;;42.40;19.50;;;2.60;99.90;;;;;;4997277;28;20246;-42
2020/12/12 02:11:17;;;;;;;42.07;18.47;;;2.60;99.90;;;;;;4998358;28;20176;-43
2020/12/12 02:13:45;;;;;;;44.67;19.10;;;2.60;99.90;;;;;;5007738;28;20242;-38
2020/12/12 02:16:11;;;;;;;44.33;18.67;;;2.60;99.90;;;;;;4999408;28;20282;-43
2020/12/12 02:18:39;;;;;;;43.77;19.33;;;2.70;99.90;;;;;;5002817;28;20223;-38
2020/12/12 02:21:05;;;;;;;42.67;19.50;;;2.60;99.90;;;;;;4980712;28;20197;-42
2020/12/12 02:23:30;;;;;;;44.47;18.77;;;2.70;99.90;;;;;;4991431;28;20594;-41
2020/12/12 02:25:57;;;;;;;40.90;19.83;;;2.60;99.90;;;;;;5001552;28;20187;-48
2020/12/12 02:28:26;;;;;;;42.77;20.80;;;2.70;99.90;;;;;;5023629;28;20199;-44
2020/12/12 02:30:51;;;;;;;42.23;19.97;;;2.70;99.90;;;;;;5019571;28;20373;-42
2020/12/12 02:33:17;;;;;;;40.47;19.03;;;2.70;99.90;;;;;;5023308;28;20682;-43
2020/12/12 02:35:43;;;;;;;45.03;19.30;;;2.70;99.90;;;;;;5002984;28;20187;-38
2020/12/12 02:38:08;;;;;;;43.43;19.73;;;2.70;99.90;;;;;;5000309;28;20553;-47
2020/12/12 02:40:34;;;;;;;39.70;18.67;;;2.70;99.90;;;;;;5002813;28;20258;-38
2020/12/12 02:43:00;;;;;;;43.63;21.67;;;2.70;99.90;;;;;;5002104;28;20207;-39
2020/12/12 02:45:25;;;;;;;40.53;18.40;;;2.60;99.90;;;;;;5004395;28;20578;-39
2020/12/12 02:47:50;;;;;;;44.17;19.03;;;2.60;99.90;;;;;;5000585;28;20191;-44
2020/12/12 02:50:25;;;;;;;42.57;19.77;;;2.60;99.90;;;;;;5004454;28;20192;-45
2020/12/12 02:52:51;;;;;;;41.97;18.10;;;2.60;99.90;;;;;;4983030;28;20208;-47
2020/12/12 02:55:16;;;;;;;42.47;21.47;;;2.60;99.90;;;;;;5003994;28;20578;-45
2020/12/12 02:57:42;;;;;;;46.23;21.57;;;2.60;99.90;;;;;;5016390;28;20180;-38
2020/12/12 03:00:11;;;;;;;46.97;19.50;;;2.60;99.90;;;;;;5022573;28;20229;-41
2020/12/12 03:02:37;;;;;;;46.10;19.27;;;2.60;99.90;;;;;;5020570;28;20200;-38
2020/12/12 03:05:05;;;;;;;41.00;19.20;;;2.60;99.90;;;;;;5021313;28;20191;-46
2020/12/12 03:07:31;;;;;;;43.00;19.80;;;2.60;99.90;;;;;;5016606;28;20214;-37
2020/12/12 03:09:56;;;;;;;38.63;19.77;;;2.60;99.90;;;;;;4979872;28;20219;-40
2020/12/12 03:12:22;;;;;;;42.20;19.47;;;2.60;99.90;;;;;;5010520;28;20206;-43
2020/12/12 03:14:47;;;;;;;38.97;19.10;;;2.60;99.90;;;;;;5019306;28;20200;-48
2020/12/12 03:17:13;;;;;;;42.43;16.60;;;2.60;99.90;;;;;;5022480;28;20536;-42
2020/12/12 03:19:38;;;;;;;43.90;18.53;;;2.60;99.90;;;;;;5020485;28;20529;-38
2020/12/12 03:22:05;;;;;;;41.47;19.23;;;2.60;99.90;;;;;;5019730;28;20180;-44
2020/12/12 03:24:31;;;;;;;45.27;20.53;;;2.60;99.90;;;;;;4982332;28;20684;-37
2020/12/12 03:26:57;;;;;;;44.83;20.03;;;2.50;99.90;;;;;;5005357;28;20191;-43
2020/12/12 03:29:22;;;;;;;43.27;20.03;;;2.50;99.90;;;;;;5002635;28;20200;-47
2020/12/12 03:31:48;;;;;;;45.60;19.43;;;2.50;99.90;;;;;;5014019;28;20291;-43
2020/12/12 03:34:13;;;;;;;42.37;19.07;;;2.50;99.90;;;;;;5023186;28;20219;-42
2020/12/12 03:36:38;;;;;;;38.87;18.30;;;2.50;99.90;;;;;;5020143;28;20268;-39
2020/12/12 03:39:04;;;;;;;46.87;20.77;;;2.50;99.90;;;;;;4991124;28;20188;-42
2020/12/12 03:41:29;;;;;;;43.23;19.70;;;2.50;99.90;;;;;;4999295;28;20199;-50
2020/12/12 03:43:55;;;;;;;37.53;18.33;;;2.50;99.90;;;;;;5020052;28;20211;-42
2020/12/12 03:46:20;;;;;;;40.63;19.43;;;2.50;99.90;;;;;;5023373;28;20195;-39
2020/12/12 03:48:46;;;;;;;46.73;19.70;;;2.50;99.90;;;;;;5018942;28;20364;-40
2020/12/12 03:51:11;;;;;;;48.70;19.80;;;2.50;99.90;;;;;;5023028;28;20185;-40
2020/12/12 03:53:37;;;;;;;41.67;20.23;;;2.50;99.90;;;;;;5001387;28;20310;-48
2020/12/12 03:56:02;;;;;;;40.73;19.57;;;2.50;99.90;;;;;;4996071;28;20175;-39
2020/12/12 03:58:28;;;;;;;39.97;19.70;;;2.50;99.90;;;;;;4990534;28;20200;-50
2020/12/12 04:00:53;;;;;;;42.77;19.50;;;2.50;99.90;;;;;;5000472;28;20679;-42
2020/12/12 04:03:19;;;;;;;43.70;19.97;;;2.50;99.90;;;;;;5010489;28;20195;-42
2020/12/12 04:05:44;;;;;;;48.13;20.57;;;2.50;99.90;;;;;;5000136;28;20186;-47
2020/12/12 04:08:13;;;;;;;42.83;21.60;;;2.50;99.90;;;;;;5003855;28;20581;-42
2020/12/12 04:10:39;;;;;;;48.30;20.90;;;2.50;99.90;;;;;;4987449;28;20200;-50
2020/12/12 04:13:05;;;;;;;43.93;20.20;;;2.50;99.90;;;;;;5004567;28;20192;-41
2020/12/12 04:15:30;;;;;;;45.40;20.23;;;2.50;99.90;;;;;;5002987;28;20216;-48
2020/12/12 04:17:56;;;;;;;46.20;19.83;;;2.50;99.90;;;;;;4998711;28;20255;-40
2020/12/12 04:20:21;;;;;;;43.17;19.67;;;2.50;99.90;;;;;;5009721;28;20195;-41
2020/12/12 04:22:46;;;;;;;43.40;19.63;;;2.50;99.90;;;;;;5018713;28;20203;-38
2020/12/12 04:25:12;;;;;;;41.33;18.50;;;2.50;99.90;;;;;;4996500;28;20275;-45
2020/12/12 04:27:38;;;;;;;43.33;19.37;;;2.40;99.90;;;;;;4996837;28;20230;-47
2020/12/12 04:30:04;;;;;;;41.10;19.30;;;2.40;99.90;;;;;;5004602;28;20372;-41
2020/12/12 04:32:30;;;;;;;42.30;18.97;;;2.40;99.90;;;;;;5008538;28;20261;-46
2020/12/12 04:34:55;;;;;;;43.97;19.23;;;2.40;99.90;;;;;;5007708;28;20736;-39
2020/12/12 04:37:21;;;;;;;36.80;17.87;;;2.40;99.90;;;;;;5010743;28;20194;-40
2020/12/12 04:39:47;;;;;;;44.80;20.07;;;2.40;99.90;;;;;;4989553;28;20743;-44
2020/12/12 04:42:14;;;;;;;47.90;20.73;;;2.40;99.90;;;;;;5009090;28;20187;-38
2020/12/12 04:44:41;;;;;;;45.00;19.20;;;2.40;99.90;;;;;;5004033;28;20190;-49
2020/12/12 04:47:07;;;;;;;49.93;20.80;;;2.40;99.90;;;;;;5008861;28;20249;-41
2020/12/12 04:49:34;;;;;;;42.87;19.30;;;2.40;99.90;;;;;;4998587;28;20267;-53
2020/12/12 04:52:03;;;;;;;42.97;19.00;;;2.40;99.90;;;;;;5016948;28;20189;-40
2020/12/12 04:54:32;;;;;;;45.83;21.07;;;2.30;99.90;;;;;;5014889;28;20216;-48
2020/12/12 04:57:01;;;;;;;46.00;20.97;;;2.40;99.90;;;;;;4999332;28;20428;-44
2020/12/12 04:59:30;;;;;;;48.57;19.30;;;2.40;99.90;;;;;;5007843;28;20583;-46
2020/12/12 05:01:57;;;;;;;45.50;20.03;;;2.40;99.90;;;;;;5002904;28;20271;-41
2020/12/12 05:04:22;;;;;;;50.90;19.93;;;2.40;99.90;;;;;;5006413;28;20242;-41
2020/12/12 05:06:48;;;;;;;38.70;18.90;;;2.30;99.90;;;;;;5002360;28;20212;-40
2020/12/12 05:09:13;;;;;;;45.80;19.73;;;2.30;99.90;;;;;;5005442;28;20675;-43
2020/12/12 05:11:39;;;;;;;46.07;20.60;;;2.40;99.90;;;;;;4983678;28;20204;-47
2020/12/12 05:14:09;;;;;;;45.93;20.23;;;2.30;99.90;;;;;;5002286;28;20236;-47
2020/12/12 05:16:35;;;;;;;48.37;19.57;;;2.30;99.90;;;;;;5004739;28;20198;-40
2020/12/12 05:19:01;;;;;;;51.73;20.43;;;2.30;99.90;;;;;;5007735;28;20191;-50
2020/12/12 05:21:27;;;;;;;43.77;19.73;;;2.30;99.90;;;;;;5000089;28;20181;-38
2020/12/12 05:23:52;;;;;;;45.27;20.20;;;2.30;99.90;;;;;;5011579;28;20199;-40
2020/12/12 05:26:18;;;;;;;44.60;20.60;;;2.30;99.90;;;;;;4987831;28;20582;-41
2020/12/12 05:28:45;;;;;;;49.43;19.83;;;2.30;99.90;;;;;;4991617;28;20285;-49
2020/12/12 05:31:10;;;;;;;40.33;19.23;;;2.30;99.90;;;;;;5003004;28;20183;-41
2020/12/12 05:33:36;;;;;;;51.20;21.83;;;2.30;99.90;;;;;;5008565;28;20209;-47
2020/12/12 05:36:02;;;;;;;50.23;21.67;;;2.30;99.90;;;;;;5000912;28;20203;-38
2020/12/12 05:38:27;;;;;;;46.17;21.33;;;2.30;99.90;;;;;;5025276;28;20666;-38
2020/12/12 05:40:55;;;;;;;43.07;17.07;;;2.30;99.90;;;;;;4981717;28;20194;-41
2020/12/12 05:43:35;;;;;;;50.03;20.47;;;2.30;99.90;;;;;;5002550;28;20244;-42
2020/12/12 05:46:01;;;;;;;44.97;19.10;;;2.30;99.90;;;;;;4998720;28;20230;-44
2020/12/12 05:48:27;;;;;;;57.13;21.70;;;2.30;99.90;;;;;;5002454;28;20612;-45
2020/12/12 05:50:53;;;;;;;50.07;20.67;;;2.30;99.90;;;;;;4996535;28;20875;-38
2020/12/12 05:53:19;;;;;;;47.70;19.80;;;2.30;99.90;;;;;;5008765;28;20204;-46
2020/12/12 05:55:45;;;;;;;43.13;20.47;;;2.30;99.90;;;;;;4982057;28;20312;-50
2020/12/12 05:58:11;;;;;;;47.40;19.37;;;2.30;99.90;;;;;;5008364;28;20209;-42
2020/12/12 06:00:38;;;;;;;53.27;21.80;;;2.20;99.90;;;;;;5011877;28;20552;-48
2020/12/12 06:03:05;;;;;;;45.33;20.33;;;2.30;99.90;;;;;;5003769;28;20834;-41
2020/12/12 06:05:33;;;;;;;55.53;21.67;;;2.20;99.90;;;;;;5009347;28;20184;-40
2020/12/12 06:08:07;;;;;;;48.87;19.67;;;2.30;99.90;;;;;;5006988;28;20195;-41
2020/12/12 06:10:34;;;;;;;49.73;19.43;;;2.20;99.90;;;;;;5003803;28;20182;-45
2020/12/12 06:13:02;;;;;;;43.73;19.43;;;2.30;99.90;;;;;;4986097;28;20245;-40
2020/12/12 06:15:38;;;;;;;51.13;21.20;;;2.20;99.90;;;;;;4999490;28;20208;-43
2020/12/12 06:18:15;;;;;;;53.27;21.63;;;2.20;99.90;;;;;;5015484;28;20248;-39
2020/12/12 06:20:44;;;;;;;43.80;19.00;;;2.30;99.90;;;;;;5019425;28;20193;-40
2020/12/12 06:23:10;;;;;;;49.17;20.77;;;2.20;99.90;;;;;;5010931;28;20660;-48
2020/12/12 06:25:35;;;;;;;47.03;19.87;;;2.20;99.90;;;;;;5018337;28;20241;-42
2020/12/12 06:28:03;;;;;;;53.80;21.07;;;2.20;99.90;;;;;;4983342;28;20206;-39
2020/12/12 06:30:31;;;;;;;49.67;20.27;;;2.20;99.90;;;;;;4997708;28;20188;-39
2020/12/12 06:33:00;;;;;;;52.30;20.57;;;2.20;99.90;;;;;;5010770;28;20274;-39
2020/12/12 06:35:33;;;;;;;52.43;21.97;;;2.20;99.90;;;;;;5018237;28;20287;-45
2020/12/12 06:38:17;;;;;;;51.77;20.87;;;2.20;99.90;;;;;;5013803;28;20626;-42
2020/12/12 06:40:42;;;;;;;55.33;21.37;;;2.20;99.90;;;;;;4986515;28;20202;-48
2020/12/12 06:43:34;;;;;;;54.33;22.40;;;2.10;99.90;;;;;;4987985;28;20710;-40
2020/12/12 06:46:02;;;;;;;56.27;22.37;;;2.10;99.90;;;;;;4990744;28;20225;-42
2020/12/12 06:48:29;;;;;;;50.83;20.90;;;2.10;99.90;;;;;;4999922;28;20275;-45
2020/12/12 06:50:56;;;;;;;52.83;20.70;;;2.10;99.90;;;;;;4994841;28;20202;-49
2020/12/12 06:53:24;;;;;;;54.10;22.17;;;2.20;99.90;;;;;;5007033;28;20208;-39
2020/12/12 06:56:10;;;;;;;49.73;20.50;;;2.10;99.90;;;;;;4989084;28;20195;-50
2020/12/12 06:58:37;;;;;;;52.33;21.27;;;2.10;99.90;;;;;;4991301;28;20187;-40
2020/12/12 07:01:25;;;;;;;52.50;21.67;;;2.10;99.90;;;;;;4992550;28;20180;-44
2020/12/12 07:04:01;;;;;;;55.07;22.33;;;2.20;99.90;;;;;;4999904;28;20247;-50
2020/12/12 07:06:29;;;;;;;52.93;20.67;;;2.20;99.90;;;;;;5005495;28;20661;-41
2020/12/12 07:08:59;;;;;;;52.80;22.07;;;2.10;99.90;;;;;;5000937;28;20202;-49
2020/12/12 07:11:26;;;;;;;58.10;21.80;;;2.20;99.90;;;;;;5023150;28;20687;-39
2020/12/12 07:13:53;;;;;;;49.83;21.70;;;2.20;99.90;;;;;;4984192;28;20576;-51
2020/12/12 07:16:20;;;;;;;50.83;21.17;;;2.20;99.90;;;;;;5010321;28;20194;-42
2020/12/12 07:18:47;;;;;;;50.77;20.80;;;2.20;99.90;;;;;;4998448;28;20727;-45
2020/12/12 07:21:13;;;;;;;53.20;22.47;;;2.20;99.90;;;;;;4998191;28;20346;-43
2020/12/12 07:23:39;;;;;;;52.17;22.13;;;2.20;99.90;;;;;;5003965;28;20207;-48
2020/12/12 07:26:05;;;;;;;46.43;20.50;;;2.20;99.90;;;;;;5001431;28;20196;-40
2020/12/12 07:28:31;;;;;;;53.87;22.07;;;2.20;99.90;;;;;;4988921;28;20220;-41
2020/12/12 07:30:56;;;;;;;57.13;22.67;;;2.10;99.90;;;;;;4997984;28;20223;-48
2020/12/12 07:33:22;;;;;;;56.63;21.40;;;2.20;99.90;;;;;;4996924;28;20203;-41
2020/12/12 07:35:47;;;;;;;53.17;20.10;;;2.20;99.90;;;;;;5007323;28;20194;-46
2020/12/12 07:38:13;;;;;;;49.50;21.60;;;2.20;99.90;;;;;;5014329;28;20269;-44
2020/12/12 07:40:38;;;;;;;54.90;22.33;;;2.20;99.90;;;;;;5006330;28;20195;-49
2020/12/12 07:43:08;;;;;;;53.70;21.27;;;2.20;99.90;;;;;;4989736;28;22304;-39
2020/12/12 07:45:47;;;;;;;64.17;23.73;;;2.30;99.90;;;;;;4997669;28;20208;-40
2020/12/12 07:48:13;;;;;;;53.27;22.33;;;2.20;99.90;;;;;;4995265;28;20253;-48
2020/12/12 07:50:39;;;;;;;54.60;21.80;;;2.20;99.90;;;;;;5009124;28;20206;-44
2020/12/12 07:53:08;;;;;;;51.73;21.53;;;2.30;99.90;;;;;;5000314;28;20218;-43
2020/12/12 07:55:37;;;;;;;63.03;22.10;;;2.30;99.90;;;;;;5022543;28;20314;-42
2020/12/12 07:58:04;;;;;;;60.20;22.50;;;2.30;99.90;;;;;;4980170;28;20206;-44
2020/12/12 08:00:29;;;;;;;54.37;22.93;;;2.30;99.90;;;;;;5003480;28;20180;-48
2020/12/12 08:02:56;;;;;;;61.03;24.17;;;2.30;99.90;;;;;;5017367;28;20207;-43
2020/12/12 08:05:22;;;;;;;64.07;23.07;;;2.30;99.90;;;;;;5004423;28;20291;-44
2020/12/12 08:07:48;;;;;;;57.60;23.23;;;2.30;99.90;;;;;;5005305;28;20286;-43
2020/12/12 08:10:14;;;;;;;62.97;24.17;;;2.30;99.90;;;;;;5024417;28;20179;-43
2020/12/12 08:12:42;;;;;;;63.40;24.73;;;2.30;99.90;;;;;;5001455;28;20220;-45
2020/12/12 08:15:23;;;;;;;48.60;21.93;;;2.30;99.90;;;;;;4989964;28;20211;-43
2020/12/12 08:17:48;;;;;;;59.67;22.93;;;2.30;99.90;;;;;;5011437;28;20217;-45
2020/12/12 08:20:24;;;;;;;57.50;23.60;;;2.30;99.90;;;;;;4998079;28;20888;-44
2020/12/12 08:22:50;;;;;;;59.80;23.40;;;2.40;99.90;;;;;;4998420;28;20259;-42
2020/12/12 08:25:17;;;;;;;63.60;23.63;;;2.40;99.90;;;;;;5006000;28;20914;-45
2020/12/12 08:27:43;;;;;;;64.37;23.97;;;2.30;99.90;;;;;;5002171;28;20206;-44
2020/12/12 08:30:08;;;;;;;64.10;24.17;;;2.30;99.90;;;;;;4988860;28;22139;-48
2020/12/12 08:32:46;;;;;;;57.67;24.77;;;2.30;99.90;;;;;;5007955;28;20242;-43
2020/12/12 08:35:30;;;;;;;61.03;24.07;;;2.30;99.90;;;;;;4993673;28;23097;-43
2020/12/12 08:37:57;;;;;;;62.03;24.70;;;2.40;99.90;;;;;;4997792;28;20537;-44
2020/12/12 08:40:34;;;;;;;53.73;24.30;;;2.40;99.90;;;;;;5025739;28;20184;-44
2020/12/12 08:43:08;;;;;;;56.67;23.63;;;2.40;99.90;;;;;;5011384;28;20210;-45
2020/12/12 08:45:42;;;;;;;56.07;25.03;;;2.40;99.90;;;;;;5025426;28;20184;-46
2020/12/12 08:48:13;;;;;;;62.97;25.03;;;2.40;99.90;;;;;;4981115;28;20188;-45
2020/12/12 08:50:50;;;;;;;57.43;23.97;;;2.40;99.90;;;;;;5007691;28;20187;-42
2020/12/12 08:53:22;;;;;;;67.90;24.73;;;2.40;99.90;;;;;;4999236;28;20302;-44
2020/12/12 08:56:10;;;;;;;60.67;23.37;;;2.40;99.90;;;;;;5002128;28;20207;-43
2020/12/12 08:58:37;;;;;;;58.93;22.90;;;2.50;99.90;;;;;;4995681;28;20175;-47
2020/12/12 09:01:09;;;;;;;57.37;22.83;;;2.50;99.90;;;;;;5002101;28;20578;-46
2020/12/12 09:03:35;;;;;;;65.33;24.33;;;2.50;99.90;;;;;;4981917;28;20386;-45
2020/12/12 09:06:06;;;;;;;58.67;24.00;;;2.50;99.90;;;;;;5000261;28;20687;-45
2020/12/12 09:08:31;;;;;;;57.43;24.40;;;2.50;99.90;;;;;;4987628;28;20176;-43
2020/12/12 09:11:12;;;;;;;56.00;22.70;;;2.50;99.90;;;;;;5006637;28;20183;-47
2020/12/12 09:13:38;;;;;;;63.90;24.67;;;2.60;99.90;;;;;;5006742;28;20961;-46
2020/12/12 09:16:07;;;;;;;55.57;23.13;;;2.60;99.90;;;;;;5005857;28;20191;-44
2020/12/12 09:18:45;;;;;;;51.80;23.73;;;2.60;99.90;;;;;;4982360;28;20916;-45
2020/12/12 09:21:11;;;;;;;69.87;24.17;;;2.60;99.90;;;;;;4999166;28;20181;-48
2020/12/12 09:23:37;;;;;;;55.50;24.23;;;2.60;99.90;;;;;;5001792;28;20310;-47
2020/12/12 09:26:03;;;;;;;56.60;24.27;;;2.70;99.90;;;;;;5019135;28;20278;-45
2020/12/12 09:28:29;;;;;;;57.93;23.90;;;2.70;99.90;;;;;;5001947;28;20282;-44
2020/12/12 09:30:54;;;;;;;61.63;24.30;;;2.70;99.90;;;;;;5005347;28;20263;-51
2020/12/12 09:33:20;;;;;;;58.73;23.17;;;2.70;99.90;;;;;;4992667;28;20200;-48
2020/12/12 09:35:45;;;;;;;49.80;22.70;;;2.70;99.90;;;;;;4995467;28;20840;-47
2020/12/12 09:38:11;;;;;;;52.07;23.10;;;2.70;99.90;;;;;;5006346;28;20188;-46
2020/12/12 09:40:36;;;;;;;53.83;23.20;;;2.70;99.90;;;;;;5010670;28;20450;-48
2020/12/12 09:43:02;;;;;;;56.50;23.00;;;2.70;99.90;;;;;;5020990;28;20210;-47
2020/12/12 09:45:27;;;;;;;54.70;24.43;;;2.70;99.90;;;;;;5008540;28;20192;-46
2020/12/12 09:47:53;;;;;;;57.83;23.83;;;2.70;99.90;;;;;;5010919;28;20215;-45
2020/12/12 09:50:18;;;;;;;52.67;21.83;;;2.70;99.90;;;;;;4992353;28;20557;-49
2020/12/12 09:52:44;;;;;;;54.70;22.20;;;2.70;99.90;;;;;;5002581;28;20303;-45
2020/12/12 09:55:09;;;;;;;54.43;23.80;;;2.70;99.90;;;;;;5015315;28;20239;-48
2020/12/12 09:57:35;;;;;;;58.93;23.47;;;2.80;99.90;;;;;;4992798;28;20773;-48
2020/12/12 10:00:00;;;;;;;54.33;23.37;;;2.80;99.90;;;;;;4996903;28;20734;-45
2020/12/12 10:02:25;;;;;;;56.70;23.67;;;2.80;99.90;;;;;;5003554;28;20342;-49
2020/12/12 10:04:51;;;;;;;49.43;23.20;;;2.80;99.90;;;;;;4982218;28;20201;-44
2020/12/12 10:07:17;;;;;;;60.70;24.50;;;2.80;99.90;;;;;;5005856;28;20180;-45
2020/12/12 10:09:42;;;;;;;50.80;22.63;;;2.80;99.90;;;;;;5020052;28;20193;-48
2020/12/12 10:12:08;;;;;;;57.13;24.07;;;2.80;99.90;;;;;;5012872;28;20226;-46
2020/12/12 10:14:33;;;;;;;55.83;24.10;;;2.90;99.90;;;;;;4999089;28;20220;-47
2020/12/12 10:16:59;;;;;;;58.50;24.63;;;2.90;99.90;;;;;;5004432;28;20692;-45
2020/12/12 10:19:24;;;;;;;52.37;22.37;;;2.90;99.90;;;;;;5003126;28;20588;-44
2020/12/12 10:21:50;;;;;;;48.67;22.60;;;2.90;99.90;;;;;;5004976;28;20193;-46
2020/12/12 10:24:15;;;;;;;58.67;22.83;;;2.90;99.90;;;;;;5006857;28;20216;-47
2020/12/12 10:26:41;;;;;;;58.67;24.60;;;2.90;99.90;;;;;;4996222;28;21039;-43
2020/12/12 10:29:06;;;;;;;51.60;24.07;;;2.90;99.90;;;;;;5000464;28;20553;-43
2020/12/12 10:31:32;;;;;;;54.33;23.97;;;2.90;99.90;;;;;;5005862;28;20175;-43
2020/12/12 10:33:57;;;;;;;57.03;23.33;;;3.00;99.90;;;;;;5005580;28;20205;-46
2020/12/12 10:36:23;;;;;;;46.97;22.07;;;3.00;99.90;;;;;;4974003;28;20267;-47
2020/12/12 10:38:49;;;;;;;49.83;22.97;;;3.00;99.90;;;;;;5009557;28;20266;-50
2020/12/12 10:41:14;;;;;;;54.40;23.53;;;3.00;99.90;;;;;;5015660;28;20207;-49
2020/12/12 10:43:40;;;;;;;52.70;22.40;;;3.00;99.90;;;;;;5002801;28;20199;-44
2020/12/12 10:46:06;;;;;;;48.77;22.33;;;3.00;99.90;;;;;;5002290;28;20188;-46
2020/12/12 10:48:32;;;;;;;49.33;21.47;;;3.10;99.90;;;;;;5005723;28;20175;-49
2020/12/12 10:50:57;;;;;;;57.90;22.23;;;3.10;99.90;;;;;;4989127;28;20196;-50
2020/12/12 10:53:23;;;;;;;48.60;21.87;;;3.10;99.90;;;;;;5007375;28;20231;-46
2020/12/12 10:55:49;;;;;;;51.93;22.47;;;3.10;99.90;;;;;;5008490;28;20440;-46
2020/12/12 10:58:18;;;;;;;42.60;21.40;;;3.10;99.90;;;;;;5008757;28;20215;-50
2020/12/12 11:00:47;;;;;;;48.97;21.43;;;3.10;99.90;;;;;;5003477;28;20195;-43
2020/12/12 11:03:13;;;;;;;45.20;21.83;;;3.20;99.90;;;;;;5008064;28;20590;-45
2020/12/12 11:05:39;;;;;;;44.93;21.37;;;3.20;99.90;;;;;;4979112;28;21267;-47
2020/12/12 11:08:05;;;;;;;49.00;21.60;;;3.20;99.90;;;;;;5008710;28;20535;-43
2020/12/12 11:10:31;;;;;;;44.77;20.97;;;3.20;99.90;;;;;;5007512;28;20876;-44
2020/12/12 11:12:56;;;;;;;43.50;21.07;;;3.20;99.90;;;;;;5005010;28;20207;-45
2020/12/12 11:15:22;;;;;;;46.70;20.67;;;3.20;99.90;;;;;;5000644;28;20200;-48
2020/12/12 11:17:47;;;;;;;46.53;21.47;;;3.30;99.90;;;;;;5003521;28;20973;-44
2020/12/12 11:20:14;;;;;;;46.63;21.03;;;3.30;99.90;;;;;;5001944;28;20271;-44
2020/12/12 11:22:39;;;;;;;42.23;21.33;;;3.30;99.90;;;;;;4983256;28;20203;-41
2020/12/12 11:25:06;;;;;;;45.67;21.83;;;3.40;99.90;;;;;;5005162;28;20195;-44
2020/12/12 11:27:32;;;;;;;44.60;22.23;;;3.30;99.90;;;;;;4998334;28;20176;-42
2020/12/12 11:29:57;;;;;;;45.43;21.63;;;3.30;99.90;;;;;;5001661;28;20193;-43
2020/12/12 11:32:23;;;;;;;42.77;20.40;;;3.40;99.90;;;;;;4993368;28;20280;-44
2020/12/12 11:34:55;;;;;;;47.90;21.13;;;3.40;99.90;;;;;;4988913;28;20220;-45
2020/12/12 11:37:52;;;;;;;45.00;20.83;;;3.40;99.90;;;;;;4988032;28;20173;-41
2020/12/12 11:40:40;;;;;;;45.00;20.13;;;3.40;99.90;;;;;;5016101;28;20181;-42
2020/12/12 11:43:15;;;;;;;43.60;20.73;;;3.40;99.90;;;;;;5013021;28;20573;-41
2020/12/12 11:48:11;;;;;;;45.47;19.80;;;3.50;99.90;;;;;;5008155;28;20183;-45
2020/12/12 11:50:37;;;;;;;45.87;20.40;;;3.50;99.90;;;;;;4997098;28;20188;-43
2020/12/12 11:53:04;;;;;;;43.43;21.07;;;3.50;99.90;;;;;;4995630;28;20207;-43
2020/12/12 11:55:29;;;;;;;40.53;20.00;;;3.50;99.90;;;;;;5005747;28;20207;-47
2020/12/12 11:57:55;;;;;;;40.90;19.67;;;3.50;99.90;;;;;;5015640;28;20176;-42
2020/12/12 12:00:22;;;;;;;39.27;19.63;;;3.60;99.90;;;;;;5008011;28;20550;-46
2020/12/12 12:02:47;;;;;;;44.67;19.53;;;3.60;99.90;;;;;;5005322;28;20207;-48
2020/12/12 12:05:13;;;;;;;40.07;20.73;;;3.60;99.90;;;;;;5003460;28;20184;-45
2020/12/12 12:07:43;;;;;;;41.03;19.70;;;3.60;99.90;;;;;;5009794;28;20865;-44
2020/12/12 12:12:40;;;;;;;40.37;19.03;;;3.60;99.90;;;;;;5012265;28;20910;-43
2020/12/12 12:15:06;;;;;;;39.23;19.43;;;3.60;99.90;;;;;;5007810;28;20212;-47
2020/12/12 12:17:31;;;;;;;38.50;19.93;;;3.60;99.90;;;;;;4996688;28;20200;-47
2020/12/12 12:19:57;;;;;;;43.73;20.17;;;3.60;99.90;;;;;;5012779;28;20184;-44
2020/12/12 12:22:22;;;;;;;43.83;20.13;;;3.60;99.90;;;;;;4998590;28;20181;-46
2020/12/12 12:24:48;;;;;;;39.57;18.80;;;3.60;99.90;;;;;;4991850;28;20267;-42
2020/12/12 12:27:13;;;;;;;41.37;19.87;;;3.60;99.90;;;;;;5001144;28;20650;-43
2020/12/12 12:29:39;;;;;;;48.43;20.60;;;3.70;99.90;;;;;;5006650;28;20918;-41
2020/12/12 12:32:04;;;;;;;36.97;19.90;;;3.70;99.90;;;;;;5004341;28;20267;-41
2020/12/12 12:34:30;;;;;;;41.87;18.43;;;3.70;99.90;;;;;;5013335;28;20193;-45
2020/12/12 12:36:56;;;;;;;43.90;19.97;;;3.70;99.90;;;;;;5009055;28;20188;-43
2020/12/12 12:39:21;;;;;;;43.87;19.00;;;3.70;99.90;;;;;;5003889;28;20192;-45
2020/12/12 12:41:47;;;;;;;37.43;18.83;;;3.70;99.90;;;;;;4994839;28;20187;-46